Time;durP1;ratioP1;P1;durP2;ratioP2;P2;SDS_P1;SDS_P2;PMS_P1;PMS_P2;Temp;Humidity;BMP_temperature;BMP_pressure;BME280_temperature;BME280_humidity;BME280_pressure;Samples;Min_cycle;Max_cycle;Signal;HPM_P1;HPM_P2
2021/04/17 00:01:09;;;;;;;11.77;5.13;;;4.10;78.60;;;;;;4903746;29;20036;-90
2021/04/17 00:03:35;;;;;;;9.68;5.20;;;4.10;78.70;;;;;;4902537;29;20035;-90
2021/04/17 00:06:01;;;;;;;11.43;5.25;;;4.10;78.90;;;;;;4902023;29;20096;-90
2021/04/17 00:08:26;;;;;;;8.90;4.93;;;4.00;79.00;;;;;;4903385;29;20020;-91
2021/04/17 00:10:52;;;;;;;7.15;4.80;;;4.00;79.20;;;;;;4917869;29;20050;-90
2021/04/17 00:13:18;;;;;;;11.48;5.13;;;4.00;79.30;;;;;;4902489;29;20029;-91
2021/04/17 00:15:44;;;;;;;6.50;4.35;;;4.00;79.50;;;;;;4904111;29;20032;-91
2021/04/17 00:18:09;;;;;;;9.73;4.90;;;3.90;79.60;;;;;;4886916;29;20024;-91
2021/04/17 00:20:35;;;;;;;10.38;5.05;;;3.90;80.40;;;;;;4889632;29;20036;-91
2021/04/17 00:23:01;;;;;;;10.30;5.03;;;3.80;79.80;;;;;;4891390;29;20040;-90
2021/04/17 00:25:27;;;;;;;7.60;5.10;;;3.80;80.10;;;;;;4918876;29;20282;-91
2021/04/17 00:27:53;;;;;;;13.13;5.65;;;3.80;80.20;;;;;;4900902;29;20386;-91
2021/04/17 00:30:19;;;;;;;6.70;4.70;;;3.80;80.30;;;;;;4916782;29;20064;-91
2021/04/17 00:32:46;;;;;;;9.68;5.22;;;3.70;80.40;;;;;;4901396;29;20036;-92
2021/04/17 00:35:12;;;;;;;11.45;5.78;;;3.70;80.60;;;;;;4901292;29;20037;-91
2021/04/17 00:37:38;;;;;;;10.75;5.70;;;3.70;80.70;;;;;;4885935;29;20025;-90
2021/04/17 00:40:04;;;;;;;10.13;5.47;;;3.70;80.90;;;;;;4901037;29;20108;-91
2021/04/17 00:42:33;;;;;;;14.07;5.53;;;3.60;80.90;;;;;;4907519;29;20051;-91
2021/04/17 00:45:05;;;;;;;10.30;5.40;;;3.60;81.10;;;;;;4924870;29;20037;-90
2021/04/17 00:47:31;;;;;;;11.27;5.97;;;3.60;81.30;;;;;;4896115;29;20024;-90
2021/04/17 00:49:56;;;;;;;8.95;5.53;;;3.50;81.40;;;;;;4916858;29;20036;-90
2021/04/17 00:52:22;;;;;;;8.68;5.55;;;3.50;81.60;;;;;;4897563;29;20044;-90
2021/04/17 00:54:49;;;;;;;9.77;6.05;;;3.50;82.50;;;;;;4894968;29;20025;-90
2021/04/17 00:57:17;;;;;;;7.55;5.40;;;3.40;82.00;;;;;;4897088;29;20021;-90
2021/04/17 00:59:44;;;;;;;13.57;5.88;;;3.40;82.10;;;;;;4893350;29;20072;-90
2021/04/17 01:02:12;;;;;;;9.20;5.18;;;3.40;82.20;;;;;;4923480;29;20048;-90
2021/04/17 01:04:50;;;;;;;10.88;5.53;;;3.30;82.40;;;;;;4906934;29;20048;-89
2021/04/17 01:07:30;;;;;;;8.85;5.18;;;3.30;82.60;;;;;;4896070;29;20048;-90
2021/04/17 01:10:15;;;;;;;10.00;5.80;;;3.30;82.70;;;;;;4893382;29;20025;-89
2021/04/17 01:12:44;;;;;;;7.13;4.90;;;3.30;82.90;;;;;;4895095;29;20056;-91
2021/04/17 01:15:12;;;;;;;11.63;5.05;;;3.30;83.00;;;;;;4888990;29;20040;-90
2021/04/17 01:17:39;;;;;;;6.65;5.05;;;3.20;83.00;;;;;;4910682;29;20020;-90
2021/04/17 01:20:26;;;;;;;9.43;5.70;;;3.20;83.10;;;;;;4907813;29;20024;-90
2021/04/17 01:23:17;;;;;;;9.35;5.40;;;3.20;83.30;;;;;;4916766;29;20069;-91
2021/04/17 01:25:57;;;;;;;9.65;5.72;;;3.10;83.40;;;;;;4905630;29;20112;-90
2021/04/17 01:28:25;;;;;;;10.57;5.07;;;3.10;83.50;;;;;;4900872;29;20032;-90
2021/04/17 01:30:52;;;;;;;10.50;5.75;;;3.10;83.60;;;;;;4881370;29;20036;-90
2021/04/17 01:33:20;;;;;;;8.75;5.28;;;3.10;83.70;;;;;;4888847;29;20418;-89
2021/04/17 01:35:51;;;;;;;11.68;5.35;;;3.00;83.80;;;;;;4920467;29;20065;-91
2021/04/17 01:38:27;;;;;;;6.93;4.65;;;3.00;84.70;;;;;;4884062;29;20092;-90
2021/04/17 01:41:06;;;;;;;10.23;6.25;;;3.00;84.10;;;;;;4890819;29;20037;-90
2021/04/17 01:43:32;;;;;;;8.00;4.82;;;2.90;84.30;;;;;;4890916;29;20110;-91
2021/04/17 01:46:06;;;;;;;9.82;5.30;;;2.90;84.40;;;;;;4924375;29;20068;-89
2021/04/17 01:48:32;;;;;;;8.52;5.80;;;2.90;84.50;;;;;;4890141;29;20467;-90
2021/04/17 01:50:59;;;;;;;7.70;5.10;;;2.90;84.70;;;;;;4906964;29;20032;-90
2021/04/17 01:53:30;;;;;;;9.77;4.80;;;2.90;84.80;;;;;;4889217;29;20028;-90
2021/04/17 01:55:58;;;;;;;7.88;4.72;;;2.80;84.80;;;;;;4903030;29;20044;-91
2021/04/17 01:58:28;;;;;;;11.70;5.18;;;2.80;85.00;;;;;;4888706;29;20032;-91
2021/04/17 02:00:56;;;;;;;9.73;5.67;;;2.80;85.20;;;;;;4915002;29;20103;-91
2021/04/17 02:03:23;;;;;;;7.95;4.95;;;2.80;85.30;;;;;;4886158;29;20029;-91
2021/04/17 02:05:50;;;;;;;11.05;5.20;;;2.70;85.40;;;;;;4888046;29;20037;-91
2021/04/17 02:08:16;;;;;;;11.73;5.53;;;2.70;85.50;;;;;;4885481;29;20051;-91
2021/04/17 02:10:43;;;;;;;8.35;5.70;;;2.70;85.70;;;;;;4888317;29;20033;-92
2021/04/17 02:13:10;;;;;;;9.35;5.68;;;2.70;85.80;;;;;;4888057;29;20584;-92
2021/04/17 02:15:37;;;;;;;7.60;5.05;;;2.60;85.80;;;;;;4888527;29;20024;-91
2021/04/17 02:18:15;;;;;;;10.57;5.22;;;2.60;85.90;;;;;;4888624;29;20059;-91
2021/04/17 02:20:42;;;;;;;9.70;5.28;;;2.60;86.20;;;;;;4886972;29;20092;-91
2021/04/17 02:23:12;;;;;;;7.85;5.07;;;2.60;86.30;;;;;;4903911;29;20445;-91
2021/04/17 02:25:38;;;;;;;7.40;4.95;;;2.50;86.40;;;;;;4901268;29;20092;-89
2021/04/17 02:28:06;;;;;;;10.63;5.20;;;2.50;86.40;;;;;;4887882;29;20119;-91
2021/04/17 02:30:31;;;;;;;8.43;4.60;;;2.50;86.50;;;;;;4888699;29;20029;-90
2021/04/17 02:33:00;;;;;;;12.20;4.93;;;2.50;86.70;;;;;;4905427;29;20108;-92
2021/04/17 02:35:26;;;;;;;8.10;4.60;;;2.40;86.90;;;;;;4903953;29;20052;-90
2021/04/17 02:37:52;;;;;;;13.82;5.38;;;2.40;87.10;;;;;;4903381;29;20047;-90
2021/04/17 02:40:18;;;;;;;10.82;4.45;;;2.40;87.20;;;;;;4888273;29;20036;-90
2021/04/17 02:42:44;;;;;;;7.90;5.20;;;2.30;87.30;;;;;;4904044;29;20068;-88
2021/04/17 02:45:10;;;;;;;11.88;5.25;;;2.30;87.50;;;;;;4887157;29;20107;-90
2021/04/17 02:47:36;;;;;;;9.60;5.07;;;2.30;87.60;;;;;;4887878;29;20048;-89
2021/04/17 02:50:01;;;;;;;6.70;4.68;;;2.30;87.70;;;;;;4918724;29;20032;-90
2021/04/17 02:52:27;;;;;;;8.98;5.35;;;2.30;87.80;;;;;;4887990;29;20024;-90
2021/04/17 02:54:53;;;;;;;7.82;4.50;;;2.20;87.80;;;;;;4888256;29;20526;-90
2021/04/17 02:57:18;;;;;;;9.38;5.18;;;2.20;87.90;;;;;;4904220;29;20021;-89
2021/04/17 02:59:44;;;;;;;9.38;5.22;;;2.20;88.10;;;;;;4887975;29;20059;-89
2021/04/17 03:02:10;;;;;;;13.05;5.78;;;2.20;88.20;;;;;;4887686;29;20021;-91
2021/04/17 03:04:35;;;;;;;7.95;5.07;;;2.20;88.40;;;;;;4904666;29;20043;-89
2021/04/17 03:07:01;;;;;;;13.32;5.75;;;2.20;88.40;;;;;;4889917;29;20033;-89
2021/04/17 03:09:27;;;;;;;9.65;5.35;;;2.10;88.50;;;;;;4892666;29;20040;-90
2021/04/17 03:11:52;;;;;;;8.05;4.93;;;2.10;88.50;;;;;;4888274;29;20503;-89
2021/04/17 03:14:18;;;;;;;10.15;5.20;;;2.10;88.70;;;;;;4886629;29;20028;-90
2021/04/17 03:16:44;;;;;;;10.27;5.38;;;2.10;88.80;;;;;;4887052;29;20031;-90
2021/04/17 03:19:09;;;;;;;10.25;4.95;;;2.00;88.80;;;;;;4886106;29;20058;-90
2021/04/17 03:21:35;;;;;;;8.50;5.28;;;2.00;89.60;;;;;;4916749;29;20079;-90
2021/04/17 03:24:01;;;;;;;11.50;5.78;;;2.00;89.00;;;;;;4886369;29;20047;-89
2021/04/17 03:26:27;;;;;;;8.25;4.72;;;1.90;89.10;;;;;;4902729;29;20025;-89
2021/04/17 03:28:52;;;;;;;10.07;5.65;;;1.90;89.20;;;;;;4885849;29;20031;-89
2021/04/17 03:31:18;;;;;;;10.43;5.70;;;1.90;89.30;;;;;;4886120;29;20028;-90
2021/04/17 03:33:44;;;;;;;12.20;5.20;;;1.80;89.40;;;;;;4885392;29;20032;-91
2021/04/17 03:36:10;;;;;;;10.65;5.30;;;1.90;89.50;;;;;;4886496;29;20439;-90
2021/04/17 03:38:36;;;;;;;8.27;5.10;;;1.90;89.60;;;;;;4916844;29;20081;-89
2021/04/17 03:41:02;;;;;;;8.77;4.82;;;1.80;90.10;;;;;;4901902;29;20035;-91
2021/04/17 03:43:28;;;;;;;14.75;7.05;;;1.80;89.70;;;;;;4887548;29;20119;-91
2021/04/17 03:45:53;;;;;;;11.20;5.72;;;1.80;89.90;;;;;;4901393;29;20457;-90
2021/04/17 03:48:19;;;;;;;9.60;4.90;;;1.70;89.90;;;;;;4902128;29;20448;-90
2021/04/17 03:50:45;;;;;;;10.68;5.05;;;1.70;90.00;;;;;;4901837;29;20068;-90
2021/04/17 03:53:10;;;;;;;7.95;5.35;;;1.70;90.10;;;;;;4904825;29;20024;-90
2021/04/17 03:55:36;;;;;;;12.93;5.05;;;1.70;90.10;;;;;;4919600;29;20085;-90
2021/04/17 03:58:02;;;;;;;11.98;5.60;;;1.60;90.10;;;;;;4905314;29;20431;-89
2021/04/17 04:00:30;;;;;;;15.73;6.03;;;1.60;90.10;;;;;;4899366;29;20032;-90
2021/04/17 04:02:56;;;;;;;14.18;5.60;;;1.60;90.20;;;;;;4908587;29;20025;-90
2021/04/17 04:05:22;;;;;;;12.63;5.78;;;1.60;90.20;;;;;;4917754;29;20168;-89
2021/04/17 04:07:47;;;;;;;10.20;5.38;;;1.60;90.60;;;;;;4900960;29;20033;-90
2021/04/17 04:10:14;;;;;;;11.63;5.32;;;1.60;90.30;;;;;;4914232;29;20024;-90
2021/04/17 04:12:41;;;;;;;10.10;5.57;;;1.60;90.70;;;;;;4929111;29;20039;-90
2021/04/17 04:15:08;;;;;;;13.93;5.90;;;1.50;90.40;;;;;;4896105;29;20049;-89
2021/04/17 04:17:34;;;;;;;8.93;5.47;;;1.50;90.50;;;;;;4896736;29;20029;-90
2021/04/17 04:19:59;;;;;;;10.57;5.07;;;1.50;90.50;;;;;;4910878;29;20176;-89
2021/04/17 04:22:25;;;;;;;8.77;5.55;;;1.50;90.60;;;;;;4909604;29;20524;-91
2021/04/17 04:24:51;;;;;;;8.43;5.55;;;1.40;90.60;;;;;;4908579;29;20047;-91
2021/04/17 04:27:16;;;;;;;9.50;5.43;;;1.40;90.70;;;;;;4908380;29;20024;-90
2021/04/17 04:29:43;;;;;;;13.63;5.85;;;1.40;90.70;;;;;;4925148;29;20040;-89
2021/04/17 04:32:09;;;;;;;11.57;6.22;;;1.40;90.70;;;;;;4908029;29;20032;-90
2021/04/17 04:34:34;;;;;;;12.25;6.18;;;1.40;90.80;;;;;;4905988;29;20083;-90
2021/04/17 04:37:00;;;;;;;12.05;6.70;;;1.30;90.80;;;;;;4906606;29;20486;-90
2021/04/17 04:39:25;;;;;;;10.43;5.90;;;1.40;90.90;;;;;;4901380;29;20107;-90
2021/04/17 04:41:51;;;;;;;10.02;5.65;;;1.30;90.90;;;;;;4899772;29;20061;-89
2021/04/17 04:44:17;;;;;;;9.63;6.20;;;1.30;91.00;;;;;;4885101;29;20111;-90
2021/04/17 04:46:42;;;;;;;9.30;5.75;;;1.20;91.00;;;;;;4901875;29;20124;-89
2021/04/17 04:49:08;;;;;;;10.13;6.25;;;1.20;91.10;;;;;;4902465;29;20032;-89
2021/04/17 04:51:34;;;;;;;9.95;5.90;;;1.20;91.10;;;;;;4902802;29;20033;-89
2021/04/17 04:53:59;;;;;;;10.38;5.80;;;1.20;91.20;;;;;;4883970;29;20036;-88
2021/04/17 04:56:25;;;;;;;10.85;5.38;;;1.20;91.20;;;;;;4903020;29;20119;-89
2021/04/17 04:58:51;;;;;;;11.25;5.47;;;1.10;91.30;;;;;;4890703;29;20037;-89
2021/04/17 05:01:17;;;;;;;10.50;5.40;;;1.10;91.40;;;;;;4886714;29;20028;-90
2021/04/17 05:03:43;;;;;;;13.18;5.85;;;1.10;91.40;;;;;;4917811;29;20039;-88
2021/04/17 05:06:09;;;;;;;10.65;6.05;;;1.00;91.40;;;;;;4884381;29;20083;-89
2021/04/17 05:08:34;;;;;;;10.80;5.95;;;1.00;91.50;;;;;;4883002;29;20040;-89
2021/04/17 05:11:00;;;;;;;10.80;6.15;;;1.00;91.60;;;;;;4884614;29;20124;-89
2021/04/17 05:13:26;;;;;;;9.30;5.25;;;1.00;91.60;;;;;;4882636;29;20546;-89
2021/04/17 05:15:51;;;;;;;10.70;5.93;;;1.00;91.70;;;;;;4883080;29;20032;-89
2021/04/17 05:18:17;;;;;;;10.43;5.90;;;1.00;91.70;;;;;;4890079;29;20036;-89
2021/04/17 05:20:43;;;;;;;9.73;5.78;;;1.00;91.80;;;;;;4920567;29;20048;-89
2021/04/17 05:23:09;;;;;;;11.15;6.35;;;0.90;91.80;;;;;;4888567;29;20032;-89
2021/04/17 05:25:34;;;;;;;9.75;5.68;;;0.90;91.90;;;;;;4888705;29;20046;-89
2021/04/17 05:28:00;;;;;;;12.68;6.53;;;1.00;91.90;;;;;;4889273;29;20501;-89
2021/04/17 05:30:26;;;;;;;11.63;6.18;;;1.00;92.00;;;;;;4888431;29;20096;-88
2021/04/17 05:32:51;;;;;;;10.18;5.97;;;0.90;92.00;;;;;;4887352;29;20029;-89
2021/04/17 05:35:19;;;;;;;11.93;6.68;;;0.90;92.10;;;;;;4886832;29;20017;-89
2021/04/17 05:37:45;;;;;;;10.95;5.50;;;0.90;92.10;;;;;;4918091;29;20566;-89
2021/04/17 05:40:11;;;;;;;10.23;5.78;;;0.90;92.20;;;;;;4886681;29;20045;-89
2021/04/17 05:42:37;;;;;;;12.40;6.03;;;0.90;92.20;;;;;;4884510;29;20052;-89
2021/04/17 05:45:04;;;;;;;12.18;6.32;;;0.90;92.30;;;;;;4903333;29;20036;-89
2021/04/17 05:47:29;;;;;;;12.45;5.50;;;0.90;92.30;;;;;;4903114;29;20115;-89
2021/04/17 05:49:55;;;;;;;11.00;6.00;;;0.90;92.40;;;;;;4885426;29;20108;-89
2021/04/17 05:52:21;;;;;;;13.98;6.90;;;0.80;92.40;;;;;;4883753;29;20025;-89
2021/04/17 05:54:47;;;;;;;10.50;5.85;;;0.80;92.60;;;;;;4884106;29;20114;-88
2021/04/17 05:57:13;;;;;;;12.18;6.22;;;0.80;92.70;;;;;;4887099;29;20350;-89
2021/04/17 05:59:39;;;;;;;9.02;5.60;;;0.80;92.80;;;;;;4902888;29;20032;-88
2021/04/17 06:02:07;;;;;;;11.13;5.97;;;0.80;92.90;;;;;;4899022;29;20103;-88
2021/04/17 06:04:33;;;;;;;11.57;5.63;;;0.80;92.90;;;;;;4885071;29;20045;-89
2021/04/17 06:06:59;;;;;;;17.83;7.65;;;0.80;93.00;;;;;;4903904;29;20031;-89
2021/04/17 06:09:26;;;;;;;14.27;6.65;;;0.80;93.00;;;;;;4886136;29;20031;-89
2021/04/17 06:11:52;;;;;;;12.98;6.38;;;0.70;93.10;;;;;;4888200;29;20037;-89
2021/04/17 06:14:18;;;;;;;9.77;6.05;;;0.70;93.20;;;;;;4886546;29;20024;-90
2021/04/17 06:16:44;;;;;;;12.90;6.28;;;0.70;93.30;;;;;;4884902;29;20113;-89
2021/04/17 06:19:10;;;;;;;10.68;6.15;;;0.70;93.40;;;;;;4902085;29;20025;-89
2021/04/17 06:21:37;;;;;;;13.02;6.28;;;0.80;93.50;;;;;;4885535;29;20090;-89
2021/04/17 06:24:04;;;;;;;10.32;6.05;;;0.80;93.50;;;;;;4887120;29;20037;-90
2021/04/17 06:26:30;;;;;;;13.48;6.60;;;0.80;93.50;;;;;;4887996;29;20096;-89
2021/04/17 06:28:56;;;;;;;13.23;6.38;;;0.90;93.50;;;;;;4890813;29;20052;-90
2021/04/17 06:31:22;;;;;;;11.15;6.38;;;0.90;93.50;;;;;;4890197;29;20021;-90
2021/04/17 06:33:48;;;;;;;12.88;7.55;;;1.00;93.60;;;;;;4889504;29;20024;-90
2021/04/17 06:36:13;;;;;;;10.32;6.28;;;1.00;93.60;;;;;;4888509;29;20027;-90
2021/04/17 06:38:39;;;;;;;13.43;6.22;;;1.00;93.60;;;;;;4889136;29;20025;-89
2021/04/17 06:41:11;;;;;;;9.82;6.40;;;1.00;93.60;;;;;;4906128;29;20016;-90
2021/04/17 06:43:40;;;;;;;12.13;7.30;;;1.10;93.70;;;;;;4890328;29;20060;-89
2021/04/17 06:46:07;;;;;;;14.88;7.43;;;1.10;93.70;;;;;;4867797;29;20041;-90
2021/04/17 06:48:37;;;;;;;15.15;7.68;;;1.20;93.70;;;;;;4876130;29;20025;-88
2021/04/17 06:51:04;;;;;;;15.65;6.70;;;1.20;93.70;;;;;;4894148;29;20036;-89
2021/04/17 06:53:35;;;;;;;15.23;8.10;;;1.20;93.70;;;;;;4888408;29;20027;-88
2021/04/17 06:56:01;;;;;;;19.70;8.48;;;1.30;93.90;;;;;;4878085;29;20464;-89
2021/04/17 06:58:27;;;;;;;20.42;8.43;;;1.30;94.00;;;;;;4878079;29;20040;-89
2021/04/17 07:00:53;;;;;;;17.45;8.80;;;1.40;94.20;;;;;;4886922;29;20393;-87
2021/04/17 07:03:18;;;;;;;14.95;7.40;;;1.50;94.30;;;;;;4887241;29;20112;-89
2021/04/17 07:05:45;;;;;;;15.75;7.80;;;1.60;94.50;;;;;;4883481;29;20543;-89
2021/04/17 07:08:11;;;;;;;12.77;7.35;;;1.70;94.60;;;;;;4872928;29;20479;-90
2021/04/17 07:10:37;;;;;;;14.55;7.50;;;1.80;94.70;;;;;;4867134;29;20077;-90
2021/04/17 07:13:14;;;;;;;11.85;6.95;;;2.00;94.80;;;;;;4883132;29;20033;-90
2021/04/17 07:15:41;;;;;;;15.73;8.10;;;2.20;94.90;;;;;;4867704;29;20123;-91
2021/04/17 07:18:26;;;;;;;13.35;7.15;;;2.30;95.00;;;;;;4883139;29;20069;-89
2021/04/17 07:20:53;;;;;;;14.63;7.20;;;2.50;95.00;;;;;;4879012;29;20116;-91
2021/04/17 07:23:30;;;;;;;10.65;6.20;;;2.70;94.90;;;;;;4874221;29;20021;-89
2021/04/17 07:26:10;;;;;;;11.75;7.00;;;2.80;94.90;;;;;;4892815;29;20036;-90
2021/04/17 07:28:36;;;;;;;10.65;6.40;;;3.00;95.00;;;;;;4891998;29;20052;-89
2021/04/17 07:31:02;;;;;;;14.35;7.63;;;3.10;94.90;;;;;;4877664;29;20033;-90
2021/04/17 07:33:29;;;;;;;10.98;7.18;;;3.20;94.80;;;;;;4876650;29;20025;-90
2021/04/17 07:35:55;;;;;;;11.65;6.72;;;3.30;94.70;;;;;;4880757;29;20032;-89
2021/04/17 07:38:25;;;;;;;15.80;6.70;;;3.40;94.60;;;;;;4880896;29;20021;-90
2021/04/17 07:41:07;;;;;;;14.53;7.40;;;3.50;94.40;;;;;;4880323;29;20028;-90
2021/04/17 07:43:54;;;;;;;13.18;7.18;;;3.60;94.30;;;;;;4883548;29;20049;-90
2021/04/17 07:46:22;;;;;;;13.75;6.78;;;3.60;94.10;;;;;;4897136;29;20040;-91
2021/04/17 07:48:49;;;;;;;9.57;6.40;;;3.60;94.10;;;;;;4882831;29;20016;-91
2021/04/17 07:51:15;;;;;;;14.13;6.53;;;3.50;94.10;;;;;;4899436;29;20033;-90
2021/04/17 07:53:42;;;;;;;12.90;6.95;;;3.60;94.10;;;;;;4883547;29;20052;-89
2021/04/17 07:56:35;;;;;;;12.77;7.05;;;3.60;94.20;;;;;;4884369;29;20032;-90
2021/04/17 07:59:07;;;;;;;12.45;6.80;;;3.60;94.20;;;;;;4881787;29;20420;-90
2021/04/17 08:01:34;;;;;;;13.90;7.97;;;3.60;94.20;;;;;;4882950;29;20039;-90
2021/04/17 08:04:02;;;;;;;15.57;7.45;;;3.70;94.30;;;;;;4882494;29;20025;-91
2021/04/17 08:06:29;;;;;;;12.98;7.20;;;3.70;94.40;;;;;;4882540;29;20041;-90
2021/04/17 08:08:57;;;;;;;13.95;6.63;;;3.90;94.50;;;;;;4882394;29;20103;-89
2021/04/17 08:11:25;;;;;;;13.23;7.57;;;3.90;94.40;;;;;;4900900;29;20554;-90
2021/04/17 08:13:53;;;;;;;12.30;6.65;;;4.00;94.40;;;;;;4899496;29;20036;-89
2021/04/17 08:16:19;;;;;;;15.93;7.88;;;4.10;94.30;;;;;;4888614;29;20028;-91
2021/04/17 08:18:46;;;;;;;12.73;7.13;;;4.30;94.30;;;;;;4897561;29;20501;-91
2021/04/17 08:21:17;;;;;;;12.75;7.65;;;4.40;94.30;;;;;;4898651;29;20035;-91
2021/04/17 08:23:48;;;;;;;14.13;7.72;;;4.50;94.60;;;;;;4882213;29;20032;-92
2021/04/17 08:26:14;;;;;;;14.68;6.78;;;4.60;94.30;;;;;;4897891;29;20033;-90
2021/04/17 08:28:44;;;;;;;17.95;7.95;;;4.80;94.30;;;;;;4883994;29;20478;-92
2021/04/17 08:31:23;;;;;;;18.25;8.00;;;4.90;94.20;;;;;;4882483;29;20028;-91
2021/04/17 08:34:04;;;;;;;19.45;8.25;;;5.10;94.10;;;;;;4888800;29;20048;-91
2021/04/17 08:36:34;;;;;;;17.27;8.40;;;5.20;94.10;;;;;;4897875;29;20044;-91
2021/04/17 08:39:00;;;;;;;21.80;9.57;;;5.40;94.10;;;;;;4880686;29;20032;-91
2021/04/17 08:41:41;;;;;;;19.98;9.35;;;5.50;94.10;;;;;;4883001;29;20439;-91
2021/04/17 08:44:25;;;;;;;15.73;8.23;;;5.70;94.20;;;;;;4885271;29;20383;-92
2021/04/17 08:46:51;;;;;;;20.98;9.00;;;5.80;94.10;;;;;;4899334;29;20047;-89
2021/04/17 08:49:28;;;;;;;15.05;8.25;;;6.00;94.00;;;;;;4901115;29;20549;-91
2021/04/17 08:52:09;;;;;;;18.33;7.97;;;6.20;93.90;;;;;;4891871;29;20096;-90
2021/04/17 08:54:36;;;;;;;;;;;6.40;93.80;;;;;;4910407;29;20044;-89
2021/04/17 08:57:13;;;;;;;12.55;7.65;;;6.50;93.60;;;;;;4903605;29;19919;-89
2021/04/17 08:59:41;;;;;;;16.50;7.28;;;6.70;93.40;;;;;;4894609;29;20028;-90
2021/04/17 09:02:15;;;;;;;16.73;7.20;;;7.00;93.20;;;;;;4883568;29;20075;-89
2021/04/17 09:05:06;;;;;;;16.08;7.35;;;7.20;93.00;;;;;;4884377;29;20025;-89
2021/04/17 09:07:35;;;;;;;17.10;7.53;;;7.40;92.80;;;;;;4896713;29;20044;-90
2021/04/17 09:10:23;;;;;;;13.10;7.82;;;7.70;92.60;;;;;;4879134;29;20112;-89
2021/04/17 09:13:10;;;;;;;14.57;6.93;;;7.90;92.30;;;;;;4897785;29;20032;-90
2021/04/17 09:16:03;;;;;;;10.93;6.13;;;8.20;91.50;;;;;;4912618;29;20027;-90
2021/04/17 09:18:35;;;;;;;11.60;6.70;;;8.50;90.60;;;;;;4882676;29;20467;-90
2021/04/17 09:21:07;;;;;;;11.85;6.65;;;8.80;90.20;;;;;;4901201;29;20542;-93
2021/04/17 09:23:40;;;;;;;10.95;6.93;;;9.00;88.80;;;;;;4885563;29;20040;-91
2021/04/17 09:26:09;;;;;;;11.80;7.55;;;9.20;87.40;;;;;;4883083;29;20032;-91
2021/04/17 09:28:39;;;;;;;14.75;8.45;;;9.40;86.30;;;;;;4883591;29;20116;-90
2021/04/17 09:31:07;;;;;;;12.75;8.20;;;9.70;83.60;;;;;;4885057;29;20088;-91
2021/04/17 09:33:33;;;;;;;16.67;7.50;;;9.90;81.90;;;;;;4892035;29;20107;-92
2021/04/17 09:35:59;;;;;;;16.92;8.57;;;10.00;80.70;;;;;;4896625;29;20028;-93
2021/04/17 09:38:32;;;;;;;14.30;8.50;;;10.20;80.10;;;;;;4882925;29;20036;-93
2021/04/17 09:40:58;;;;;;;14.68;8.55;;;10.50;79.00;;;;;;4885131;29;20032;-93
2021/04/17 09:43:29;;;;;;;15.15;8.93;;;10.70;77.80;;;;;;4888298;29;20057;-90
2021/04/17 09:46:00;;;;;;;16.42;9.88;;;10.90;76.50;;;;;;4906873;29;20036;-92
2021/04/17 09:48:26;;;;;;;15.00;9.85;;;11.10;75.60;;;;;;4906738;29;20454;-89
2021/04/17 09:50:57;;;;;;;18.80;10.90;;;11.30;74.80;;;;;;4886992;29;20029;-92
2021/04/17 09:53:34;;;;;;;16.38;10.85;;;11.50;73.90;;;;;;4905756;29;20052;-93
2021/04/17 09:56:02;;;;;;;19.55;11.50;;;11.70;73.70;;;;;;4907142;29;20029;-93
2021/04/17 09:58:36;;;;;;;17.83;10.90;;;12.00;72.30;;;;;;4882620;29;20021;-93
2021/04/17 10:01:16;;;;;;;19.05;11.18;;;12.10;71.50;;;;;;4879483;29;20096;-93
2021/04/17 10:04:01;;;;;;;15.07;10.63;;;12.40;70.90;;;;;;4883625;29;20060;-93
2021/04/17 10:06:32;;;;;;;18.40;11.00;;;12.50;69.80;;;;;;4900910;29;20402;-93
2021/04/17 10:09:07;;;;;;;16.88;10.57;;;12.70;69.50;;;;;;4882010;29;20044;-91
2021/04/17 10:11:38;;;;;;;17.90;10.45;;;12.90;68.70;;;;;;4887282;29;20119;-91
2021/04/17 10:14:05;;;;;;;16.88;10.25;;;13.10;67.70;;;;;;4885567;29;20119;-93
2021/04/17 10:16:40;;;;;;;15.15;9.77;;;13.20;66.30;;;;;;4901826;29;20024;-92
2021/04/17 10:19:09;;;;;;;16.00;10.35;;;13.30;66.10;;;;;;4890885;29;20025;-93
2021/04/17 10:21:40;;;;;;;19.77;10.98;;;13.50;66.00;;;;;;4887294;29;20475;-93
2021/04/17 10:24:15;;;;;;;17.88;10.30;;;13.60;65.00;;;;;;4901249;29;20024;-93
2021/04/17 10:27:07;;;;;;;16.05;9.73;;;13.60;64.00;;;;;;4883867;29;20135;-93
2021/04/17 10:29:53;;;;;;;16.77;10.80;;;13.60;63.60;;;;;;4898731;29;20036;-93
2021/04/17 10:32:23;;;;;;;16.90;9.50;;;13.80;63.30;;;;;;4884419;29;20114;-93
2021/04/17 10:35:04;;;;;;;14.63;9.27;;;13.90;63.10;;;;;;4896930;29;20453;-92
2021/04/17 10:37:44;;;;;;;13.60;9.45;;;14.20;62.60;;;;;;4899480;29;20042;-93
2021/04/17 10:40:12;;;;;;;14.18;9.93;;;14.50;61.80;;;;;;4886661;29;20410;-93
2021/04/17 10:42:50;;;;;;;19.95;10.25;;;14.70;61.50;;;;;;4906716;29;20053;-94
2021/04/17 10:45:31;;;;;;;17.90;9.88;;;15.00;60.50;;;;;;4899630;29;20063;-93
2021/04/17 10:48:13;;;;;;;15.75;11.07;;;15.20;59.60;;;;;;4883049;29;20501;-93
2021/04/17 10:51:02;;;;;;;14.38;9.55;;;15.40;58.40;;;;;;4899031;29;20079;-92
2021/04/17 10:53:35;;;;;;;20.67;10.00;;;15.40;57.80;;;;;;4913661;29;20368;-92
2021/04/17 10:56:15;;;;;;;15.90;10.77;;;15.20;57.80;;;;;;4898434;29;20032;-92
2021/04/17 10:58:44;;;;;;;15.45;9.75;;;15.20;58.00;;;;;;4897398;29;20116;-92
2021/04/17 11:01:17;;;;;;;14.90;9.70;;;15.40;58.10;;;;;;4899042;29;20051;-92
2021/04/17 11:03:48;;;;;;;12.23;8.32;;;15.60;58.20;;;;;;4884220;29;20206;-92
2021/04/17 11:06:15;;;;;;;;;;;15.90;57.40;;;;;;4882319;29;20037;-94
2021/04/17 11:08:42;;;;;;;13.50;9.30;;;16.20;57.00;;;;;;4901401;29;20265;-93
2021/04/17 11:11:13;;;;;;;15.25;9.25;;;16.30;56.20;;;;;;4888276;29;20044;-93
2021/04/17 11:13:41;;;;;;;;;;;16.60;56.00;;;;;;4890253;29;20065;-92
2021/04/17 11:16:25;;;;;;;15.07;10.50;;;16.80;55.50;;;;;;4901233;29;19915;-93
2021/04/17 11:19:23;;;;;;;14.68;9.48;;;17.00;54.60;;;;;;4896019;29;20032;-93
2021/04/17 11:22:07;;;;;;;14.75;9.00;;;16.90;53.90;;;;;;4900675;29;20056;-93
2021/04/17 11:28:16;;;;;;;11.15;8.18;;;17.30;53.70;;;;;;4903295;29;20094;-94
2021/04/17 11:34:40;;;;;;;12.23;7.75;;;17.60;52.50;;;;;;4826170;29;20049;-92
2021/04/17 11:37:23;;;;;;;11.00;7.35;;;17.90;52.10;;;;;;4825104;29;20030;-92
2021/04/17 11:40:00;;;;;;;15.52;8.88;;;18.00;51.10;;;;;;4811150;29;20038;-93
2021/04/17 11:42:56;;;;;;;13.07;7.95;;;18.20;50.50;;;;;;4819663;29;20631;-94
2021/04/17 11:45:45;;;;;;;12.98;7.40;;;18.30;50.10;;;;;;4818272;29;20125;-93
2021/04/17 11:48:32;;;;;;;13.13;7.53;;;18.50;49.80;;;;;;4818897;29;20023;-93
2021/04/17 11:50:58;;;;;;;12.23;8.07;;;18.70;49.20;;;;;;4824889;29;20034;-93
2021/04/17 11:53:24;;;;;;;15.32;7.43;;;18.80;49.00;;;;;;4820787;29;20540;-93
2021/04/17 11:55:51;;;;;;;14.18;7.95;;;18.90;48.50;;;;;;4805733;29;20027;-93
2021/04/17 11:58:18;;;;;;;12.73;8.65;;;19.00;48.00;;;;;;4820734;29;20102;-93
2021/04/17 12:00:46;;;;;;;10.73;7.20;;;19.00;47.70;;;;;;4792217;29;20023;-93
2021/04/17 12:03:21;;;;;;;11.80;7.47;;;19.00;48.20;;;;;;4795967;29;20418;-93
2021/04/17 12:05:48;;;;;;;11.63;7.70;;;19.10;47.50;;;;;;4867240;29;20084;-93
2021/04/17 12:08:13;;;;;;;11.40;6.97;;;19.10;47.10;;;;;;4899370;29;20033;-93
2021/04/17 12:10:39;;;;;;;9.63;7.20;;;19.20;47.10;;;;;;4883682;29;20356;-94
2021/04/17 12:13:05;;;;;;;12.93;7.13;;;19.40;46.90;;;;;;4882744;29;20086;-92
2021/04/17 12:15:31;;;;;;;15.88;8.68;;;19.50;46.50;;;;;;4884375;29;20029;-92
2021/04/17 12:17:57;;;;;;;10.60;7.45;;;19.60;46.30;;;;;;4881155;29;20027;-92
2021/04/17 12:20:23;;;;;;;12.52;8.63;;;19.70;46.30;;;;;;4882159;29;20124;-93
2021/04/17 12:22:48;;;;;;;11.80;7.80;;;19.70;46.10;;;;;;4884042;29;20040;-93
2021/04/17 12:25:17;;;;;;;15.75;8.90;;;19.80;46.00;;;;;;4896653;29;20081;-92
2021/04/17 12:27:43;;;;;;;13.13;7.65;;;19.80;45.60;;;;;;4898829;29;20057;-94
2021/04/17 12:30:10;;;;;;;12.73;8.55;;;19.70;45.80;;;;;;4881950;29;20040;-92
2021/04/17 12:32:36;;;;;;;9.75;7.03;;;19.50;45.70;;;;;;4883947;29;20029;-91
2021/04/17 12:35:02;;;;;;;14.90;7.72;;;19.60;45.70;;;;;;4884217;29;20116;-92
2021/04/17 12:37:27;;;;;;;10.20;6.90;;;19.60;45.20;;;;;;4883413;29;20025;-91
2021/04/17 12:39:53;;;;;;;11.65;7.00;;;19.90;44.80;;;;;;4887572;29;20033;-91
2021/04/17 12:42:19;;;;;;;13.82;7.95;;;20.00;43.90;;;;;;4891366;29;20048;-92
2021/04/17 12:44:48;;;;;;;13.30;8.30;;;20.10;43.80;;;;;;4888959;29;20496;-92
2021/04/17 12:47:13;;;;;;;12.85;8.85;;;20.10;44.10;;;;;;4886672;29;20044;-92
2021/04/17 12:49:39;;;;;;;13.95;8.85;;;20.20;44.40;;;;;;4914784;29;20025;-93
2021/04/17 12:52:05;;;;;;;13.55;8.15;;;20.30;44.40;;;;;;4917589;29;20038;-93
2021/04/17 12:54:32;;;;;;;10.18;8.27;;;20.40;44.00;;;;;;4916458;29;20020;-92
2021/04/17 12:57:00;;;;;;;16.30;8.82;;;20.10;43.10;;;;;;4883895;29;20055;-92
2021/04/17 12:59:26;;;;;;;12.23;8.75;;;19.80;43.80;;;;;;4883900;29;20123;-90
2021/04/17 13:01:52;;;;;;;13.52;9.05;;;19.80;44.70;;;;;;4915453;29;20035;-93
2021/04/17 13:04:18;;;;;;;14.07;9.07;;;20.00;45.00;;;;;;4883359;29;20017;-92